Portada
METAR-TAF:

METAR-TAF

Aeropuertos :

Grosseto, Italia

latitud: 42-45N, longitud: 011-04E, altitud: 5 m

Observación

El informe se hizo hace 1 hora y 16 minutos, a las 19:55 UTC
Viento 3 kt del este
Temperatura 7°C
Humedad 93%
Presión 1029 hPa
Visibilidad 10 km o más
sin nubes por debajo de 1500 m y sin presencia de cumulonimbus.

METAR: LIRS 031955Z 10003KT CAVOK 07/06 Q1029 RMK VIS MIN 9999 WIND THR03 11004KT WIND THR21 BLU

Hora: 22:11 (21:11 UTC)

Pronóstico

El informe se hizo hace 1 hora y 11 minutos, a las 20:00 UTC
Pronóstico válido del 03 a las 21 UTC al 04 a las 06 UTC
Viento 5 kt del este-sureste
Visibilidad 10 km o más
sin nubes por debajo de 1500 m y sin presencia de cumulonimbus.

TAF: LIRS 032000Z 0321/0406 11005KT CAVOK

Observaciones y pronósticos meteorológicos de más de 4000 aeropuertos (mensajes METAR y TAF).

Los puntos amarillos y rojos representan las estaciones disponibles.

Ponga el ratón en el punto deseado para ver el nombre de la estación.

Haga clic para ver las observaciones y los pronósticos meteorológicos.

Para cambiar el mapa : haga clic en los botones verdes con una cruz de color negro para hacer un zoom, en el botón verde con un guión para alejar o en las flechas verdes para mapas adyacentes.


METAR-TAF: